createdAt,value
2023-09-29T00:02:20.021Z,10.67
2023-09-29T00:04:46.196Z,10.57
2023-09-29T00:07:12.377Z,10.64
2023-09-29T00:09:38.543Z,10.39
2023-09-29T00:12:04.699Z,10.26
2023-09-29T00:14:30.874Z,10.41
2023-09-29T00:16:57.049Z,10.40
2023-09-29T00:19:23.263Z,10.77
2023-09-29T00:21:49.436Z,10.92
2023-09-29T00:24:15.618Z,11.29
2023-09-29T00:26:41.845Z,11.43
2023-09-29T00:29:08.041Z,11.37
2023-09-29T00:31:34.251Z,11.27
2023-09-29T00:34:00.580Z,11.14
2023-09-29T00:36:26.740Z,11.02
2023-09-29T00:38:52.997Z,10.79
2023-09-29T00:41:19.252Z,10.64
2023-09-29T00:43:45.440Z,10.71
2023-09-29T00:46:11.696Z,10.51
2023-09-29T00:48:37.950Z,10.51
2023-09-29T00:51:04.197Z,10.20
2023-09-29T00:53:30.462Z,9.96
2023-09-29T00:55:56.653Z,9.91
2023-09-29T00:58:22.817Z,9.90
2023-09-29T01:00:49.005Z,9.88
2023-09-29T01:03:15.343Z,9.83
2023-09-29T01:05:41.666Z,9.79
2023-09-29T01:08:07.849Z,9.72
2023-09-29T01:10:34.000Z,9.73
2023-09-29T01:13:00.175Z,9.87
2023-09-29T01:15:26.340Z,10.47
2023-09-29T01:17:52.618Z,10.58
2023-09-29T01:20:18.794Z,10.38
2023-09-29T01:22:44.974Z,10.62
2023-09-29T01:25:11.135Z,10.76
2023-09-29T01:27:37.287Z,10.73
2023-09-29T01:30:03.457Z,10.17
2023-09-29T01:32:29.703Z,9.82
2023-09-29T01:34:55.938Z,9.65
2023-09-29T01:37:22.087Z,9.66
2023-09-29T01:39:48.269Z,9.78
2023-09-29T01:42:14.433Z,9.81
2023-09-29T01:44:40.738Z,10.05
2023-09-29T01:47:07.097Z,10.29
2023-09-29T01:49:33.482Z,10.12
2023-09-29T01:51:59.643Z,10.02
2023-09-29T01:54:25.820Z,10.21
2023-09-29T01:56:52.227Z,10.22
2023-09-29T01:59:18.407Z,10.47
2023-09-29T02:01:44.559Z,10.11
2023-09-29T02:04:10.797Z,9.88
2023-09-29T02:06:37.005Z,9.98
2023-09-29T02:09:03.172Z,9.98
2023-09-29T02:11:29.416Z,9.85
2023-09-29T02:13:55.611Z,9.83
2023-09-29T02:16:21.762Z,9.98
2023-09-29T02:18:48.189Z,10.16
2023-09-29T02:21:14.527Z,10.31
2023-09-29T02:23:40.718Z,10.18
2023-09-29T02:26:06.881Z,9.97
2023-09-29T02:28:33.146Z,9.94
2023-09-29T02:30:59.475Z,10.14
2023-09-29T02:33:25.744Z,10.24
2023-09-29T02:35:52.021Z,10.32
2023-09-29T02:38:18.212Z,10.62
2023-09-29T02:40:44.376Z,10.58
2023-09-29T02:43:10.553Z,10.38
2023-09-29T02:45:36.716Z,10.12
2023-09-29T02:48:02.973Z,10.32
2023-09-29T02:50:29.241Z,10.46
2023-09-29T02:52:55.453Z,10.72
2023-09-29T02:55:21.605Z,10.80
2023-09-29T02:57:47.855Z,10.83
2023-09-29T03:00:14.050Z,10.60
2023-09-29T03:02:40.318Z,10.64
2023-09-29T03:05:06.571Z,10.60
2023-09-29T03:07:32.745Z,10.34
2023-09-29T03:09:58.909Z,10.18
2023-09-29T03:12:25.111Z,9.92
2023-09-29T03:14:51.309Z,9.98
2023-09-29T03:17:17.466Z,9.98
2023-09-29T03:19:43.638Z,9.67
2023-09-29T03:22:09.805Z,9.64
2023-09-29T03:24:35.953Z,9.62
2023-09-29T03:27:02.163Z,9.72
2023-09-29T03:29:28.355Z,9.98
2023-09-29T03:31:54.712Z,10.07
2023-09-29T03:34:21.105Z,9.93
2023-09-29T03:36:47.276Z,10.03
2023-09-29T03:39:13.455Z,10.01
2023-09-29T03:41:39.696Z,9.93
2023-09-29T03:44:05.865Z,10.01
2023-09-29T03:46:32.052Z,10.13
2023-09-29T03:48:58.256Z,10.04
2023-09-29T03:51:24.442Z,9.95
2023-09-29T03:53:50.638Z,10.02
2023-09-29T03:56:16.802Z,10.53
2023-09-29T03:58:42.950Z,10.55
2023-09-29T04:01:09.138Z,10.63
2023-09-29T04:03:35.440Z,10.54
2023-09-29T04:06:01.789Z,10.37
2023-09-29T04:08:28.049Z,9.96
2023-09-29T04:10:54.239Z,9.83
2023-09-29T04:13:20.470Z,9.83
2023-09-29T04:15:46.621Z,9.98
2023-09-29T04:18:12.989Z,9.78
2023-09-29T04:20:39.224Z,9.65
2023-09-29T04:23:05.388Z,9.77
2023-09-29T04:25:31.568Z,9.81
2023-09-29T04:27:57.732Z,10.02
2023-09-29T04:30:23.915Z,10.00
2023-09-29T04:32:50.169Z,9.81
2023-09-29T04:35:16.395Z,9.94
2023-09-29T04:37:42.536Z,10.08
2023-09-29T04:40:08.696Z,10.08
2023-09-29T04:42:34.867Z,10.26
2023-09-29T04:45:01.087Z,10.13
2023-09-29T04:47:27.315Z,9.93
2023-09-29T04:49:53.478Z,9.98
2023-09-29T04:52:19.632Z,10.01
2023-09-29T04:54:45.806Z,10.06
2023-09-29T04:57:11.994Z,10.04
2023-09-29T04:59:38.161Z,10.07
2023-09-29T05:02:04.361Z,10.02
2023-09-29T05:04:30.548Z,10.11
2023-09-29T05:06:56.730Z,10.40
2023-09-29T05:09:22.902Z,10.21
2023-09-29T05:11:49.204Z,10.32
2023-09-29T05:14:15.451Z,10.27
2023-09-29T05:16:41.685Z,10.43
2023-09-29T05:19:07.954Z,10.52
2023-09-29T05:21:34.169Z,10.65
2023-09-29T05:24:00.407Z,10.63
2023-09-29T05:26:26.660Z,10.13
2023-09-29T05:28:52.827Z,10.11
2023-09-29T05:31:18.998Z,9.93
2023-09-29T05:33:45.249Z,10.28
2023-09-29T05:36:11.500Z,10.38
2023-09-29T05:38:37.741Z,10.66
2023-09-29T05:41:03.909Z,10.72
2023-09-29T05:43:30.110Z,10.46
2023-09-29T05:45:56.298Z,10.78
2023-09-29T05:48:22.511Z,10.89
2023-09-29T05:50:50.665Z,11.14
2023-09-29T05:53:17.330Z,11.62
2023-09-29T05:55:43.514Z,11.57
2023-09-29T05:58:09.704Z,11.60
2023-09-29T06:00:35.892Z,11.81
2023-09-29T06:03:02.257Z,12.06
2023-09-29T06:05:28.513Z,12.14
2023-09-29T06:07:57.723Z,12.32
2023-09-29T06:10:24.661Z,12.02
2023-09-29T06:12:50.821Z,11.88
2023-09-29T06:15:16.981Z,12.09
2023-09-29T06:17:43.232Z,12.01
2023-09-29T06:20:09.436Z,11.80
2023-09-29T06:22:35.599Z,12.05
2023-09-29T06:25:01.763Z,12.50
2023-09-29T06:27:27.970Z,12.36
2023-09-29T06:29:54.159Z,12.48
2023-09-29T06:32:20.351Z,12.55
2023-09-29T06:34:46.555Z,12.61
2023-09-29T06:37:12.736Z,12.82
2023-09-29T06:39:38.899Z,13.05
2023-09-29T06:42:05.207Z,13.20
2023-09-29T06:44:31.446Z,13.42
2023-09-29T06:46:57.608Z,13.46
2023-09-29T06:49:23.751Z,13.67
2023-09-29T06:51:49.983Z,13.52
2023-09-29T06:54:16.288Z,13.74
2023-09-29T06:56:42.535Z,13.85
2023-09-29T06:59:09.856Z,14.18
2023-09-29T07:01:36.386Z,14.10
2023-09-29T07:04:08.111Z,14.33
2023-09-29T07:06:35.245Z,14.38
2023-09-29T07:09:01.482Z,14.43
2023-09-29T07:11:27.662Z,14.36
2023-09-29T07:13:53.834Z,14.34
2023-09-29T07:16:20.018Z,14.33
2023-09-29T07:18:46.331Z,14.30
2023-09-29T07:21:12.602Z,14.21
2023-09-29T07:23:38.847Z,14.07
2023-09-29T07:26:05.036Z,13.99
2023-09-29T07:28:31.227Z,13.95
2023-09-29T07:30:57.452Z,13.86
2023-09-29T07:33:23.684Z,14.03
2023-09-29T07:35:49.924Z,14.04
2023-09-29T07:38:16.128Z,14.09
2023-09-29T07:40:42.329Z,13.78
2023-09-29T07:43:08.484Z,14.07
2023-09-29T07:45:34.637Z,14.36
2023-09-29T07:48:00.956Z,14.66
2023-09-29T07:50:27.183Z,14.78
2023-09-29T07:52:53.341Z,14.88
2023-09-29T07:55:19.508Z,14.85
2023-09-29T07:57:45.733Z,15.09
2023-09-29T08:00:11.946Z,15.02
2023-09-29T08:02:38.196Z,15.02
2023-09-29T08:05:04.410Z,15.20
2023-09-29T08:07:30.579Z,15.36
2023-09-29T08:09:56.791Z,15.18
2023-09-29T08:12:22.960Z,15.24
2023-09-29T08:14:49.138Z,15.44
2023-09-29T08:17:15.324Z,15.48
2023-09-29T08:19:41.504Z,15.35
2023-09-29T08:22:07.668Z,15.49
2023-09-29T08:24:33.832Z,15.39
2023-09-29T08:27:00.013Z,15.44
2023-09-29T08:29:26.214Z,15.35
2023-09-29T08:31:52.424Z,15.54
2023-09-29T08:34:18.665Z,15.53
2023-09-29T08:36:44.874Z,15.97
2023-09-29T08:39:11.041Z,15.95
2023-09-29T08:41:37.214Z,15.96
2023-09-29T08:44:07.745Z,15.94
2023-09-29T08:46:34.644Z,16.00
2023-09-29T08:49:00.909Z,16.26
2023-09-29T08:51:27.128Z,16.44
2023-09-29T08:53:53.357Z,16.49
2023-09-29T08:56:19.564Z,16.72
2023-09-29T08:58:45.725Z,16.82
2023-09-29T09:01:11.900Z,16.68
2023-09-29T09:03:38.195Z,16.78
2023-09-29T09:06:04.429Z,17.06
2023-09-29T09:08:30.628Z,17.35
2023-09-29T09:10:56.790Z,17.39
2023-09-29T09:13:23.057Z,17.34
2023-09-29T09:15:49.251Z,17.51
2023-09-29T09:18:15.530Z,17.34
2023-09-29T09:20:41.805Z,17.61
2023-09-29T09:23:08.006Z,17.60
2023-09-29T09:25:34.181Z,17.78
2023-09-29T09:28:00.352Z,17.79
2023-09-29T09:30:26.594Z,17.66
2023-09-29T09:32:53.151Z,17.86
2023-09-29T09:35:19.518Z,18.02
2023-09-29T09:37:45.696Z,17.77
2023-09-29T09:40:11.911Z,17.16
2023-09-29T09:42:38.095Z,17.44
2023-09-29T09:45:04.287Z,17.76
2023-09-29T09:47:30.503Z,18.06
2023-09-29T09:49:56.688Z,17.72
2023-09-29T09:52:22.845Z,17.34
2023-09-29T09:54:49.002Z,17.15
2023-09-29T09:57:15.228Z,16.98
2023-09-29T09:59:41.487Z,16.96
2023-09-29T10:02:07.677Z,17.27
2023-09-29T10:04:34.000Z,17.67
2023-09-29T10:07:00.218Z,18.12
2023-09-29T10:09:26.444Z,18.36
2023-09-29T10:11:52.630Z,18.46
2023-09-29T10:14:18.944Z,18.63
2023-09-29T10:16:45.137Z,18.70
2023-09-29T10:19:11.311Z,18.63
2023-09-29T10:21:37.476Z,18.83
2023-09-29T10:24:03.720Z,18.89
2023-09-29T10:26:30.348Z,19.07
2023-09-29T10:28:56.737Z,19.21
2023-09-29T10:31:23.000Z,19.02
2023-09-29T10:33:49.228Z,19.33
2023-09-29T10:36:15.426Z,19.37
2023-09-29T10:38:41.752Z,18.82
2023-09-29T10:41:23.297Z,19.17
2023-09-29T10:43:54.331Z,19.29
2023-09-29T10:46:20.770Z,19.20
2023-09-29T10:48:47.106Z,19.38
2023-09-29T10:51:13.384Z,19.03
2023-09-29T10:53:39.622Z,18.99
2023-09-29T10:56:05.814Z,19.43
2023-09-29T10:58:31.980Z,18.61
2023-09-29T11:00:58.168Z,18.35
2023-09-29T11:03:24.417Z,18.39
2023-09-29T11:05:50.728Z,18.15
2023-09-29T11:08:17.004Z,18.12
2023-09-29T11:10:43.392Z,18.06
2023-09-29T11:13:09.593Z,17.91
2023-09-29T11:15:35.762Z,17.96
2023-09-29T11:18:02.030Z,17.93
2023-09-29T11:20:28.610Z,18.10
2023-09-29T11:22:54.954Z,18.31
2023-09-29T11:25:21.181Z,18.37
2023-09-29T11:27:47.433Z,18.94
2023-09-29T11:30:13.652Z,18.86
2023-09-29T11:32:40.704Z,18.76
2023-09-29T11:35:06.956Z,18.71
2023-09-29T11:37:33.130Z,19.29
2023-09-29T11:39:59.276Z,19.29
2023-09-29T11:42:25.496Z,19.39
2023-09-29T11:44:51.797Z,19.14
2023-09-29T11:47:17.997Z,18.93
2023-09-29T11:49:44.172Z,19.08
2023-09-29T11:52:10.469Z,19.53
2023-09-29T11:54:36.640Z,19.46
2023-09-29T11:57:02.863Z,19.60
2023-09-29T11:59:29.058Z,19.52
2023-09-29T12:01:55.266Z,19.81
2023-09-29T12:04:21.535Z,20.19
2023-09-29T12:06:47.774Z,19.94
2023-09-29T12:09:14.009Z,20.37
2023-09-29T12:11:40.160Z,19.62
2023-09-29T12:14:06.493Z,19.54
2023-09-29T12:16:32.825Z,19.44
2023-09-29T12:18:59.030Z,19.47
2023-09-29T12:21:25.216Z,20.16
2023-09-29T12:23:51.502Z,19.75
2023-09-29T12:26:17.728Z,20.22
2023-09-29T12:28:43.906Z,20.48
2023-09-29T12:31:10.122Z,20.83
2023-09-29T12:33:36.334Z,20.64
2023-09-29T12:36:02.607Z,20.35
2023-09-29T12:38:28.812Z,20.93
2023-09-29T12:40:54.974Z,20.58
2023-09-29T12:43:21.124Z,20.58
2023-09-29T12:45:47.344Z,20.95
2023-09-29T12:48:13.567Z,20.59
2023-09-29T12:50:39.945Z,20.37
2023-09-29T12:53:06.278Z,20.15
2023-09-29T12:55:32.488Z,20.06
2023-09-29T12:57:58.742Z,20.03
2023-09-29T13:00:24.930Z,20.34
2023-09-29T13:02:51.247Z,20.19
2023-09-29T13:05:17.601Z,19.81
2023-09-29T13:07:43.805Z,20.02
2023-09-29T13:10:09.964Z,20.11
2023-09-29T13:12:36.171Z,20.24
2023-09-29T13:15:02.394Z,20.59
2023-09-29T13:17:28.643Z,20.51
2023-09-29T13:19:54.817Z,20.57
2023-09-29T13:22:20.994Z,21.31
2023-09-29T13:24:47.172Z,21.83
2023-09-29T13:27:13.370Z,21.56
2023-09-29T13:29:39.540Z,22.15
2023-09-29T13:32:05.772Z,22.46
2023-09-29T13:34:31.997Z,22.64
2023-09-29T13:36:58.229Z,22.53
2023-09-29T13:39:24.492Z,22.08
2023-09-29T13:41:50.709Z,22.27
2023-09-29T13:44:16.982Z,22.39
2023-09-29T13:47:00.649Z,21.83
2023-09-29T13:49:29.304Z,22.30
2023-09-29T13:51:55.474Z,22.17
2023-09-29T13:54:21.686Z,22.32
2023-09-29T13:56:47.899Z,22.28
2023-09-29T13:59:14.103Z,22.71
2023-09-29T14:01:40.319Z,22.78
2023-09-29T14:04:06.621Z,22.16
2023-09-29T14:06:32.864Z,20.79
2023-09-29T14:09:13.188Z,20.25
2023-09-29T14:11:42.772Z,20.37
2023-09-29T14:14:08.934Z,20.70
2023-09-29T14:16:35.204Z,20.85
2023-09-29T14:19:01.478Z,20.97
2023-09-29T14:21:27.687Z,20.77
2023-09-29T14:23:53.940Z,20.55
2023-09-29T14:26:22.365Z,20.52
2023-09-29T14:28:48.516Z,20.75
2023-09-29T14:31:14.997Z,21.00
2023-09-29T14:33:41.241Z,21.27
2023-09-29T14:36:07.480Z,21.66
2023-09-29T14:38:33.640Z,21.65
2023-09-29T14:40:59.811Z,21.50
2023-09-29T14:43:25.972Z,21.70
2023-09-29T14:45:52.169Z,21.76
2023-09-29T14:48:18.430Z,21.40
2023-09-29T14:50:44.644Z,21.16
2023-09-29T14:53:10.797Z,21.05
2023-09-29T14:55:36.966Z,21.09
2023-09-29T14:58:03.129Z,20.89
2023-09-29T15:00:29.301Z,20.55
2023-09-29T15:02:55.539Z,20.69
2023-09-29T15:05:21.782Z,20.72
2023-09-29T15:07:48.005Z,20.53
2023-09-29T15:10:14.191Z,20.57
2023-09-29T15:12:40.377Z,20.53
2023-09-29T15:15:06.553Z,20.59
2023-09-29T15:17:32.731Z,20.39
2023-09-29T15:19:59.002Z,19.98
2023-09-29T15:22:25.155Z,20.04
2023-09-29T15:24:51.338Z,19.85
2023-09-29T15:27:17.539Z,19.89
2023-09-29T15:29:43.717Z,19.73
2023-09-29T15:32:09.922Z,19.67
2023-09-29T15:34:36.136Z,19.79
2023-09-29T15:37:02.297Z,19.64
2023-09-29T15:39:28.601Z,19.71
2023-09-29T15:41:54.835Z,19.62
2023-09-29T15:44:21.019Z,19.37
2023-09-29T15:46:47.165Z,19.35
2023-09-29T15:49:13.344Z,19.45
2023-09-29T15:51:39.509Z,19.57
2023-09-29T15:54:05.817Z,19.55
2023-09-29T15:56:32.027Z,19.37
2023-09-29T15:58:58.212Z,19.30
2023-09-29T16:01:24.403Z,19.25
2023-09-29T16:03:50.854Z,19.37
2023-09-29T16:06:17.152Z,19.03
2023-09-29T16:08:43.557Z,18.83
2023-09-29T16:11:09.736Z,18.83
2023-09-29T16:13:35.902Z,18.92
2023-09-29T16:16:02.111Z,18.94
2023-09-29T16:18:28.371Z,18.89
2023-09-29T16:20:54.601Z,18.93
2023-09-29T16:23:20.799Z,18.89
2023-09-29T16:25:46.960Z,18.72
2023-09-29T16:28:13.146Z,18.49
2023-09-29T16:30:39.318Z,18.18
2023-09-29T16:33:05.568Z,17.99
2023-09-29T16:35:37.156Z,17.97
2023-09-29T16:38:03.887Z,18.16
2023-09-29T16:40:30.053Z,18.09
2023-09-29T16:42:56.199Z,17.73
2023-09-29T16:45:22.417Z,17.67
2023-09-29T16:47:48.687Z,17.42
2023-09-29T16:50:14.948Z,17.46
2023-09-29T16:52:41.109Z,17.39
2023-09-29T16:55:07.415Z,17.07
2023-09-29T16:57:33.716Z,16.95
2023-09-29T16:59:59.944Z,16.89
2023-09-29T17:02:26.126Z,16.91
2023-09-29T17:04:52.344Z,16.92
2023-09-29T17:07:18.586Z,16.84
2023-09-29T17:09:44.743Z,16.67
2023-09-29T17:12:11.154Z,16.68
2023-09-29T17:14:37.413Z,16.48
2023-09-29T17:17:03.580Z,16.35
2023-09-29T17:19:29.766Z,16.39
2023-09-29T17:21:55.941Z,16.27
2023-09-29T17:24:22.170Z,16.31
2023-09-29T17:26:48.362Z,16.27
2023-09-29T17:29:14.521Z,16.40
2023-09-29T17:31:40.925Z,16.34
2023-09-29T17:34:07.239Z,16.37
2023-09-29T17:36:33.425Z,16.34
2023-09-29T17:38:59.696Z,16.19
2023-09-29T17:41:25.898Z,15.84
2023-09-29T17:43:52.065Z,15.68
2023-09-29T17:46:18.278Z,15.89
2023-09-29T17:48:44.712Z,15.90
2023-09-29T17:51:10.941Z,16.12
2023-09-29T17:53:37.159Z,15.94
2023-09-29T17:56:03.312Z,15.89
2023-09-29T17:58:29.457Z,15.53
2023-09-29T18:00:55.610Z,15.73
2023-09-29T18:03:21.834Z,15.84
2023-09-29T18:05:48.033Z,16.15
2023-09-29T18:08:14.240Z,15.97
2023-09-29T18:10:40.385Z,16.09
2023-09-29T18:13:06.565Z,15.93
2023-09-29T18:15:32.766Z,15.97
2023-09-29T18:17:59.026Z,15.77
2023-09-29T18:20:25.283Z,15.72
2023-09-29T18:22:51.434Z,15.82
2023-09-29T18:25:17.602Z,15.69
2023-09-29T18:27:43.753Z,15.76
2023-09-29T18:30:09.962Z,15.87
2023-09-29T18:32:36.194Z,15.83
2023-09-29T18:35:02.446Z,16.12
2023-09-29T18:37:28.607Z,16.05
2023-09-29T18:39:54.764Z,16.07
2023-09-29T18:42:20.955Z,16.19
2023-09-29T18:44:47.188Z,16.31
2023-09-29T18:47:13.358Z,15.88
2023-09-29T18:49:39.510Z,15.57
2023-09-29T18:52:05.674Z,15.52
2023-09-29T18:54:31.849Z,15.57
2023-09-29T18:56:58.071Z,15.68
2023-09-29T18:59:24.439Z,15.55
2023-09-29T19:01:50.762Z,15.40
2023-09-29T19:04:16.984Z,15.27
2023-09-29T19:06:43.243Z,15.32
2023-09-29T19:09:09.587Z,15.39
2023-09-29T19:11:35.819Z,15.54
2023-09-29T19:14:02.087Z,15.73
2023-09-29T19:16:28.274Z,15.91
2023-09-29T19:18:54.573Z,15.34
2023-09-29T19:21:20.872Z,15.26
2023-09-29T19:23:47.186Z,15.38
2023-09-29T19:26:13.358Z,15.60
2023-09-29T19:28:39.562Z,15.32
2023-09-29T19:31:05.742Z,15.57
2023-09-29T19:33:31.947Z,15.59
2023-09-29T19:35:58.173Z,15.38
2023-09-29T19:38:24.359Z,15.48
2023-09-29T19:40:50.531Z,15.21
2023-09-29T19:43:16.683Z,14.91
2023-09-29T19:45:42.943Z,14.80
2023-09-29T19:48:09.292Z,15.01
2023-09-29T19:50:35.519Z,15.00
2023-09-29T19:53:01.706Z,14.95
2023-09-29T19:55:27.891Z,14.79
2023-09-29T19:57:54.075Z,15.13
2023-09-29T20:00:20.298Z,15.17
2023-09-29T20:02:46.508Z,15.03
2023-09-29T20:05:12.690Z,14.71
2023-09-29T20:07:38.858Z,14.20
2023-09-29T20:10:05.123Z,14.20
2023-09-29T20:12:31.312Z,14.58
2023-09-29T20:14:57.556Z,14.32
2023-09-29T20:17:23.853Z,14.38
2023-09-29T20:19:50.101Z,14.38
2023-09-29T20:22:16.260Z,14.39
2023-09-29T20:24:42.434Z,14.46
2023-09-29T20:27:08.655Z,14.49
2023-09-29T20:29:34.813Z,14.45
2023-09-29T20:32:01.048Z,14.21
2023-09-29T20:34:27.312Z,14.27
2023-09-29T20:36:53.484Z,14.51
2023-09-29T20:39:19.720Z,14.66
2023-09-29T20:41:45.926Z,14.49
2023-09-29T20:44:12.110Z,14.53
2023-09-29T20:46:38.274Z,14.94
2023-09-29T20:49:04.461Z,15.09
2023-09-29T20:51:30.662Z,14.92
2023-09-29T20:53:57.022Z,15.11
2023-09-29T20:56:23.316Z,15.34
2023-09-29T20:58:49.469Z,15.35
2023-09-29T21:01:15.680Z,15.21
2023-09-29T21:03:42.011Z,14.98
2023-09-29T21:06:08.398Z,15.12
2023-09-29T21:08:34.583Z,14.87
2023-09-29T21:11:00.770Z,14.67
2023-09-29T21:13:26.946Z,14.74
2023-09-29T21:15:53.273Z,14.92
2023-09-29T21:18:20.232Z,15.09
2023-09-29T21:20:46.458Z,15.18
2023-09-29T21:23:12.641Z,15.24
2023-09-29T21:25:38.983Z,15.10
2023-09-29T21:28:05.260Z,15.14
2023-09-29T21:30:31.491Z,15.48
2023-09-29T21:32:57.755Z,15.54
2023-09-29T21:35:23.935Z,15.86
2023-09-29T21:37:50.098Z,15.54
2023-09-29T21:40:16.379Z,15.52
2023-09-29T21:42:42.575Z,15.63
2023-09-29T21:45:08.831Z,15.59
2023-09-29T21:47:35.033Z,14.48
2023-09-29T21:50:01.222Z,13.55
2023-09-29T21:52:27.411Z,14.03
2023-09-29T21:54:53.587Z,14.56
2023-09-29T21:57:19.782Z,14.79
2023-09-29T21:59:45.967Z,15.00
2023-09-29T22:02:12.153Z,15.07
2023-09-29T22:04:38.351Z,14.98
2023-09-29T22:07:04.503Z,14.89
2023-09-29T22:09:30.705Z,14.99
2023-09-29T22:11:56.907Z,14.99
2023-09-29T22:14:23.058Z,15.05
2023-09-29T22:16:49.221Z,14.88
2023-09-29T22:19:15.422Z,14.91
2023-09-29T22:21:41.617Z,14.99
2023-09-29T22:24:07.875Z,14.85
2023-09-29T22:26:34.104Z,14.83
2023-09-29T22:29:00.325Z,14.85
2023-09-29T22:31:26.566Z,14.32
2023-09-29T22:33:52.814Z,14.23
2023-09-29T22:36:19.078Z,14.32
2023-09-29T22:38:45.248Z,14.75
2023-09-29T22:41:11.515Z,14.67
2023-09-29T22:43:37.686Z,14.66
2023-09-29T22:46:03.974Z,14.77
2023-09-29T22:48:30.254Z,14.79
2023-09-29T22:50:56.438Z,14.74
2023-09-29T22:53:22.600Z,14.72
2023-09-29T22:55:48.763Z,14.53
2023-09-29T22:58:14.932Z,14.57
2023-09-29T23:00:41.143Z,14.64
2023-09-29T23:03:07.593Z,14.44
2023-09-29T23:05:33.836Z,14.45
2023-09-29T23:07:59.994Z,14.49
2023-09-29T23:10:26.153Z,14.59
2023-09-29T23:12:52.330Z,14.47
2023-09-29T23:15:18.576Z,14.47
2023-09-29T23:17:44.853Z,14.62
2023-09-29T23:20:11.336Z,14.68
2023-09-29T23:22:37.911Z,14.70
2023-09-29T23:25:04.090Z,14.34
2023-09-29T23:27:30.356Z,14.29
2023-09-29T23:29:56.581Z,14.30
2023-09-29T23:32:22.752Z,14.40
2023-09-29T23:34:48.910Z,14.33
2023-09-29T23:37:15.092Z,14.20
2023-09-29T23:39:41.351Z,14.06
2023-09-29T23:42:07.627Z,13.99
2023-09-29T23:44:33.823Z,13.99
2023-09-29T23:46:59.998Z,14.18
2023-09-29T23:49:26.241Z,14.03
2023-09-29T23:51:52.494Z,14.14
2023-09-29T23:54:18.814Z,14.03
2023-09-29T23:56:45.003Z,13.77
2023-09-29T23:59:11.161Z,13.87
